Time;durP1;ratioP1;P1;durP2;ratioP2;P2;SDS_P1;SDS_P2;PMS_P1;PMS_P2;Temp;Humidity;BMP_temperature;BMP_pressure;BME280_temperature;BME280_humidity;BME280_pressure;Samples;Min_cycle;Max_cycle;Signal;HPM_P1;HPM_P2
2022/09/26 11:08:05;;;;;;;2.83;0.80;;;15.50;99.90;;;;;;5072252;28;20036;-83
2022/09/26 11:10:35;;;;;;;4.35;1.00;;;15.50;99.90;;;;;;5055994;28;20062;-81
2022/09/26 11:13:22;;;;;;;3.85;1.10;;;15.60;99.90;;;;;;5061765;28;20552;-83
2022/09/26 11:16:00;;;;;;;2.40;1.15;;;15.50;99.90;;;;;;5060513;28;20028;-84
2022/09/26 11:18:41;;;;;;;3.55;1.20;;;15.60;99.90;;;;;;5054943;28;20356;-84
2022/09/26 11:21:27;;;;;;;4.82;1.33;;;15.70;99.90;;;;;;5047235;28;20021;-84
2022/09/26 11:24:26;;;;;;;2.15;1.00;;;15.80;99.90;;;;;;5059291;28;20028;-85
2022/09/26 11:27:04;;;;;;;3.35;0.88;;;15.90;99.90;;;;;;5058702;28;20047;-84
2022/09/26 11:29:46;;;;;;;3.63;0.80;;;15.90;99.90;;;;;;5071925;28;20487;-86
2022/09/26 11:32:41;;;;;;;3.40;1.52;;;15.90;99.90;;;;;;5049905;28;20029;-84
2022/09/26 11:35:42;;;;;;;2.58;1.10;;;16.20;99.90;;;;;;5049362;28;20043;-85
2022/09/26 11:38:37;;;;;;;3.75;1.27;;;16.00;99.90;;;;;;5047605;28;20485;-84
2022/09/26 11:41:09;;;;;;;4.10;1.23;;;16.00;99.90;;;;;;5051315;28;20045;-87
2022/09/26 11:43:46;;;;;;;3.85;1.20;;;16.00;99.90;;;;;;5054400;28;20024;-85
2022/09/26 11:46:24;;;;;;;5.38;1.50;;;16.00;99.90;;;;;;5066691;28;20024;-87
2022/09/26 11:48:56;;;;;;;3.60;1.10;;;16.00;99.90;;;;;;5056025;28;20024;-87
2022/09/26 11:51:44;;;;;;;7.22;1.60;;;16.00;99.90;;;;;;5054651;28;20036;-86
2022/09/26 11:54:32;;;;;;;5.55;2.92;;;16.00;99.90;;;;;;5061554;28;20028;-86
2022/09/26 11:57:16;;;;;;;25.80;3.03;;;15.90;99.90;;;;;;5050197;28;20452;-85
2022/09/26 12:00:01;;;;;;;2.65;1.20;;;15.90;99.90;;;;;;5056930;28;20112;-87
2022/09/26 12:02:32;;;;;;;4.35;1.17;;;15.70;99.90;;;;;;5053290;28;20039;-86
2022/09/26 12:05:16;;;;;;;9.95;1.73;;;15.60;99.90;;;;;;5049182;28;20052;-85
2022/09/26 12:08:01;;;;;;;4.90;1.70;;;15.40;99.90;;;;;;5049355;28;20040;-82
2022/09/26 12:10:42;;;;;;;5.53;1.35;;;15.30;99.90;;;;;;5051786;28;20112;-85
2022/09/26 12:13:38;;;;;;;3.40;1.10;;;15.30;99.90;;;;;;5079707;28;20051;-81
2022/09/26 12:16:37;;;;;;;8.35;1.80;;;15.30;99.90;;;;;;5062586;28;20062;-84
2022/09/26 12:19:47;;;;;;;2.57;1.23;;;15.40;99.90;;;;;;5065292;28;20392;-84
2022/09/26 12:22:28;;;;;;;3.08;0.93;;;15.50;99.90;;;;;;5025446;28;20275;-84
2022/09/26 12:24:54;;;;;;;3.78;1.00;;;;;;;;;;5061869;28;20029;-83
2022/09/26 12:27:58;;;;;;;5.13;1.65;;;15.40;99.90;;;;;;5053978;28;20024;-81
2022/09/26 12:30:50;;;;;;;6.35;1.50;;;15.40;99.90;;;;;;4993164;28;20084;-83
2022/09/26 12:33:45;;;;;;;2.88;1.05;;;15.50;99.90;;;;;;5023723;28;20141;-83
2022/09/26 12:36:17;;;;;;;5.68;1.20;;;15.50;99.90;;;;;;5047477;28;20124;-83
2022/09/26 12:39:23;;;;;;;4.43;1.20;;;15.50;99.90;;;;;;5074967;28;20415;-83
2022/09/26 12:41:52;;;;;;;4.90;1.30;;;15.60;99.90;;;;;;5045661;28;20024;-80
2022/09/26 12:44:36;;;;;;;4.22;1.10;;;15.60;99.90;;;;;;5057933;28;20024;-81
2022/09/26 12:47:22;;;;;;;3.75;1.10;;;15.70;99.90;;;;;;5072408;28;20036;-82
2022/09/26 12:50:15;;;;;;;2.65;1.10;;;15.70;99.90;;;;;;5051811;28;20034;-82
2022/09/26 12:53:00;;;;;;;3.53;1.15;;;15.60;99.90;;;;;;5063709;28;20090;-80
2022/09/26 12:55:46;;;;;;;4.63;1.42;;;15.70;99.90;;;;;;5078074;28;20037;-81
2022/09/26 12:59:07;;;;;;;4.55;1.13;;;15.70;99.90;;;;;;5052880;28;20037;-85
2022/09/26 13:01:57;;;;;;;4.07;1.08;;;15.70;99.90;;;;;;5019237;28;20467;-83
2022/09/26 13:04:49;;;;;;;3.13;0.80;;;15.80;99.90;;;;;;5075057;28;20414;-82
2022/09/26 13:07:58;;;;;;;2.25;0.90;;;16.00;99.90;;;;;;5064988;28;20032;-84
2022/09/26 13:10:30;;;;;;;3.92;0.98;;;16.10;99.90;;;;;;5056576;28;20024;-84
2022/09/26 13:13:32;;;;;;;2.70;1.00;;;16.00;99.90;;;;;;5076592;28;20062;-83
2022/09/26 13:15:57;;;;;;;2.45;1.08;;;15.90;99.90;;;;;;5069593;28;20017;-81
2022/09/26 13:18:38;;;;;;;3.13;1.00;;;16.00;99.90;;;;;;5053198;28;20142;-84
2022/09/26 13:21:17;;;;;;;3.35;0.95;;;16.10;99.90;;;;;;5051991;28;20025;-85
2022/09/26 13:23:59;;;;;;;5.43;1.17;;;16.20;99.90;;;;;;5061708;28;20021;-86
2022/09/26 13:26:34;;;;;;;3.25;0.90;;;16.20;99.90;;;;;;5057812;28;20028;-83
2022/09/26 13:29:14;;;;;;;2.88;1.30;;;16.20;99.90;;;;;;5061029;28;20039;-84
2022/09/26 13:32:13;;;;;;;2.72;1.20;;;16.40;99.90;;;;;;5058332;28;20050;-83
2022/09/26 13:34:49;;;;;;;6.60;1.30;;;16.50;99.90;;;;;;5067591;28;20043;-84
2022/09/26 13:37:46;;;;;;;2.75;1.00;;;16.60;99.90;;;;;;5061731;28;20020;-82
2022/09/26 13:40:35;;;;;;;2.92;0.98;;;16.50;99.90;;;;;;5070175;28;20040;-83
2022/09/26 13:43:14;;;;;;;3.17;1.05;;;16.50;99.90;;;;;;5050871;28;20040;-82
2022/09/26 13:45:54;;;;;;;2.42;0.90;;;16.40;99.90;;;;;;5059314;28;20031;-85
2022/09/26 13:48:48;;;;;;;3.70;1.10;;;16.50;99.90;;;;;;5060796;28;20025;-85
2022/09/26 13:51:36;;;;;;;7.07;1.38;;;16.50;99.90;;;;;;5075341;28;20039;-86
2022/09/26 13:54:15;;;;;;;2.47;1.10;;;16.40;99.90;;;;;;5069926;28;20385;-84
2022/09/26 13:56:47;;;;;;;3.42;1.20;;;16.40;99.90;;;;;;5091177;28;20023;-84
2022/09/26 13:59:14;;;;;;;3.85;1.00;;;16.30;99.90;;;;;;5093384;28;20024;-86
2022/09/26 14:02:19;;;;;;;3.47;1.42;;;16.20;99.90;;;;;;5075768;28;20021;-86
2022/09/26 14:05:09;;;;;;;2.75;1.02;;;16.20;99.90;;;;;;5077937;28;20049;-85
2022/09/26 14:10:33;;;;;;;3.85;1.33;;;16.20;99.90;;;;;;5093021;28;20039;-86
2022/09/26 14:13:20;;;;;;;5.70;1.10;;;16.20;99.90;;;;;;5077101;28;20515;-83
2022/09/26 14:15:46;;;;;;;1.70;0.70;;;16.30;99.90;;;;;;5059484;28;20024;-82
2022/09/26 14:18:24;;;;;;;3.05;1.13;;;16.30;99.90;;;;;;5062908;28;20012;-83
2022/09/26 14:21:13;;;;;;;3.28;1.20;;;16.30;99.90;;;;;;5096542;28;20082;-82
2022/09/26 14:23:46;;;;;;;6.13;1.40;;;16.00;99.90;;;;;;5076384;28;20024;-85
2022/09/26 14:26:20;;;;;;;2.17;1.10;;;16.30;99.90;;;;;;5088315;28;20044;-82
2022/09/26 14:28:51;;;;;;;3.80;1.15;;;16.00;99.90;;;;;;5095028;28;20033;-85
2022/09/26 14:31:23;;;;;;;3.88;1.00;;;16.00;99.90;;;;;;5057437;28;20036;-81
2022/09/26 14:33:50;;;;;;;1.80;0.88;;;;;;;;;;5082771;28;20017;-81
2022/09/26 14:36:26;;;;;;;4.50;1.48;;;;;;;;;;5075620;28;20112;-83
2022/09/26 14:38:53;;;;;;;2.65;0.90;;;;;;;;;;5091002;28;20791;-84
2022/09/26 14:41:21;;;;;;;1.90;0.95;;;16.00;99.60;;;;;;5067037;28;20040;-83
2022/09/26 14:44:04;;;;;;;2.45;0.93;;;16.00;99.80;;;;;;5063271;28;20054;-85
2022/09/26 14:46:34;;;;;;;2.70;1.08;;;16.00;98.70;;;;;;5082911;28;20025;-81
2022/09/26 14:49:22;;;;;;;3.25;1.10;;;;;;;;;;5089459;28;20020;-85
2022/09/26 14:51:48;;;;;;;4.65;1.20;;;;;;;;;;5096534;28;20063;-85
2022/09/26 14:54:25;;;;;;;2.47;1.00;;;15.90;98.40;;;;;;5064428;28;20055;-86
2022/09/26 14:57:01;;;;;;;1.80;0.77;;;;;;;;;;5049178;28;20021;-83
2022/09/26 14:59:38;;;;;;;1.92;1.13;;;15.80;98.60;;;;;;5064286;28;20112;-84
2022/09/26 15:02:16;;;;;;;1.95;0.90;;;;;;;;;;5060555;28;20039;-84
2022/09/26 15:04:50;;;;;;;3.22;1.05;;;15.90;98.70;;;;;;5092296;28;20024;-83
2022/09/26 15:07:23;;;;;;;2.67;1.00;;;15.90;99.00;;;;;;5070634;28;20032;-83
2022/09/26 15:09:55;;;;;;;2.85;1.10;;;;;;;;;;5079754;28;20024;-83
2022/09/26 15:12:44;;;;;;;;;;;;;;;;;;;;;
2022/09/26 15:15:40;;;;;;;4.05;1.13;;;15.60;99.40;;;;;;5069768;28;20096;-86
2022/09/26 15:18:16;;;;;;;2.80;1.20;;;;;;;;;;5090371;28;20092;-85
2022/09/26 15:21:05;;;;;;;1.95;1.10;;;15.50;99.90;;;;;;5070280;28;20037;-84
2022/09/26 15:23:51;;;;;;;3.85;1.00;;;;;;;;;;5056325;28;20038;-82
2022/09/26 15:26:22;;;;;;;2.92;0.85;;;15.40;99.90;;;;;;5023330;28;20252;-86
2022/09/26 15:28:53;;;;;;;3.15;1.00;;;15.40;99.90;;;;;;5081468;28;20027;-85
2022/09/26 15:31:27;;;;;;;7.68;1.60;;;;;;;;;;5085857;28;20052;-84
2022/09/26 15:34:00;;;;;;;3.22;0.93;;;15.30;99.90;;;;;;5073165;28;20036;-85
2022/09/26 15:36:34;;;;;;;2.13;1.17;;;15.30;99.90;;;;;;5062779;28;20037;-85
2022/09/26 15:39:47;;;;;;;5.00;1.30;;;15.70;99.90;;;;;;5069893;28;20028;-86
2022/09/26 15:45:25;;;;;;;4.25;1.45;;;15.20;99.90;;;;;;5074804;28;20059;-86
2022/09/26 15:47:55;;;;;;;4.35;1.38;;;15.10;99.90;;;;;;5078488;28;20104;-86
2022/09/26 15:50:39;;;;;;;5.78;1.48;;;15.10;99.90;;;;;;5081419;28;20020;-87
2022/09/26 15:53:14;;;;;;;14.60;3.13;;;14.90;99.90;;;;;;5065884;28;20174;-86
2022/09/26 15:55:59;;;;;;;10.63;2.30;;;14.80;99.90;;;;;;5065636;28;20093;-84
2022/09/26 15:58:49;;;;;;;6.78;1.55;;;14.80;99.90;;;;;;5068357;28;20115;-84
2022/09/26 16:01:20;;;;;;;2.83;1.27;;;14.40;99.90;;;;;;5093336;28;20025;-85
2022/09/26 16:04:24;;;;;;;2.42;1.17;;;;;;;;;;5075445;28;20021;-85
2022/09/26 17:13:49;;;;;;;4.45;2.70;;;12.50;99.90;;;;;;5447647;22;20049;-84
2022/09/26 17:16:21;;;;;;;4.85;2.17;;;12.50;99.90;;;;;;5015562;28;20033;-85
2022/09/26 17:19:12;;;;;;;7.13;2.25;;;12.40;99.90;;;;;;5017382;28;20119;-84
2022/09/26 17:21:45;;;;;;;5.13;1.60;;;12.40;99.90;;;;;;5019287;28;20025;-84
2022/09/26 17:24:21;;;;;;;3.70;1.80;;;12.40;99.90;;;;;;5008648;28;20025;-86
2022/09/26 17:27:22;;;;;;;;;;;;;;;;;;;;;
2022/09/26 17:29:53;;;;;;;6.40;2.10;;;12.20;99.90;;;;;;5039340;28;20097;-83
2022/09/26 17:32:29;;;;;;;5.93;2.10;;;12.20;99.90;;;;;;5023039;28;20026;-84
2022/09/26 17:34:58;;;;;;;4.25;1.70;;;12.10;99.90;;;;;;5022873;28;20036;-85
2022/09/26 17:37:25;;;;;;;6.15;2.42;;;12.10;99.90;;;;;;5026866;28;20030;-87
2022/09/26 17:39:52;;;;;;;5.88;2.20;;;;;;;;;;5041090;28;20031;-84
2022/09/26 17:42:39;;;;;;;4.35;2.17;;;;;;;;;;5035682;28;20029;-84
2022/09/26 17:45:05;;;;;;;3.08;1.90;;;;;;;;;;5053693;28;20033;-83
2022/09/26 17:47:31;;;;;;;5.97;1.83;;;;;;;;;;5040184;28;20036;-86
2022/09/26 17:50:21;;;;;;;4.25;1.75;;;12.10;99.90;;;;;;5048479;28;20031;-85
2022/09/26 17:52:53;;;;;;;4.18;1.90;;;12.10;99.90;;;;;;5025406;28;20226;-84
2022/09/26 17:55:23;;;;;;;4.45;1.88;;;12.10;99.90;;;;;;5044364;28;20477;-83
2022/09/26 17:57:52;;;;;;;3.85;1.70;;;;;;;;;;5054185;28;20389;-81
2022/09/26 18:00:20;;;;;;;4.20;1.85;;;12.20;99.90;;;;;;5031268;28;20748;-82
2022/09/26 18:03:03;;;;;;;5.05;1.92;;;12.10;99.90;;;;;;5032355;28;20029;-82
2022/09/26 18:05:33;;;;;;;4.68;1.90;;;12.10;99.90;;;;;;5045254;28;20089;-84
2022/09/26 18:08:05;;;;;;;4.60;1.80;;;12.00;99.90;;;;;;5023480;28;20033;-83
2022/09/26 18:10:33;;;;;;;4.10;2.00;;;11.90;99.90;;;;;;5049165;28;20029;-84
2022/09/26 18:13:03;;;;;;;3.05;1.67;;;11.90;99.90;;;;;;5032190;28;20037;-81
2022/09/26 18:15:29;;;;;;;5.72;2.55;;;11.80;99.90;;;;;;5041798;28;20040;-83
2022/09/26 18:17:55;;;;;;;3.63;2.00;;;11.80;99.90;;;;;;5018463;28;20020;-83
2022/09/26 18:20:26;;;;;;;3.65;1.70;;;11.80;99.90;;;;;;5033778;28;20032;-83
2022/09/26 18:22:52;;;;;;;6.13;2.35;;;11.80;99.90;;;;;;5031680;28;20094;-84
2022/09/26 18:25:21;;;;;;;7.38;2.65;;;11.70;99.90;;;;;;5049434;28;20024;-82
2022/09/26 18:27:51;;;;;;;3.72;1.95;;;11.60;99.90;;;;;;5014350;28;20051;-81
2022/09/26 18:30:18;;;;;;;3.88;1.98;;;11.60;99.90;;;;;;5024465;28;20323;-84
2022/09/26 18:32:46;;;;;;;4.65;2.10;;;11.40;99.90;;;;;;5032670;28;20041;-81
2022/09/26 18:35:24;;;;;;;4.35;1.70;;;10.00;99.90;;;;;;5031202;28;20420;-81
2022/09/26 18:37:51;;;;;;;3.60;2.05;;;11.40;99.90;;;;;;5024116;28;20413;-83
2022/09/26 18:40:17;;;;;;;6.60;2.60;;;11.40;99.90;;;;;;5040962;28;20025;-83
2022/09/26 18:42:44;;;;;;;5.20;2.60;;;11.40;99.90;;;;;;5035166;28;20473;-85
2022/09/26 18:45:14;;;;;;;7.75;2.38;;;11.40;99.90;;;;;;5017672;28;20029;-83
2022/09/26 18:47:41;;;;;;;5.22;3.90;;;11.30;99.90;;;;;;5025532;28;20143;-81
2022/09/26 18:50:30;;;;;;;4.97;1.92;;;11.30;99.90;;;;;;5018580;28;20069;-83
2022/09/26 18:52:56;;;;;;;4.47;2.15;;;11.00;99.90;;;;;;5038562;28;20443;-86
2022/09/26 18:58:24;;;;;;;4.53;2.30;;;11.30;99.90;;;;;;5044815;28;20047;-86
2022/09/26 19:00:57;;;;;;;2.28;1.67;;;11.20;99.90;;;;;;5040725;28;20569;-84
2022/09/26 19:03:26;;;;;;;5.25;2.45;;;11.20;99.90;;;;;;5034564;28;20076;-84
2022/09/26 19:05:59;;;;;;;4.35;1.92;;;11.20;99.90;;;;;;5065099;28;20028;-84
2022/09/26 19:08:32;;;;;;;5.55;2.30;;;11.20;99.90;;;;;;5034885;28;20393;-82
2022/09/26 19:11:02;;;;;;;4.63;1.98;;;11.20;99.90;;;;;;5032438;28;20040;-85
2022/09/26 19:13:29;;;;;;;3.90;2.40;;;;;;;;;;5026647;28;20040;-85
2022/09/26 19:15:54;;;;;;;4.00;2.10;;;11.20;99.90;;;;;;5043795;28;20029;-83
2022/09/26 19:18:20;;;;;;;3.38;2.03;;;11.10;99.90;;;;;;5035809;28;20052;-86
2022/09/26 19:20:46;;;;;;;6.13;2.70;;;11.10;99.90;;;;;;5045353;28;20092;-86
2022/09/26 19:23:12;;;;;;;5.88;2.40;;;11.10;99.90;;;;;;5067371;28;20076;-87
2022/09/26 19:25:39;;;;;;;4.00;2.03;;;11.10;99.90;;;;;;5060293;28;20043;-88
2022/09/26 19:28:06;;;;;;;5.35;2.25;;;11.10;99.90;;;;;;5050996;28;20089;-84
2022/09/26 19:30:32;;;;;;;7.75;4.28;;;11.00;99.90;;;;;;5049507;28;20028;-83
2022/09/26 19:32:58;;;;;;;4.78;2.45;;;11.00;99.90;;;;;;5052358;28;20039;-86
2022/09/26 19:35:37;;;;;;;5.72;2.50;;;11.00;99.90;;;;;;5054391;28;20029;-86
2022/09/26 19:38:19;;;;;;;5.15;2.78;;;11.10;99.90;;;;;;5049323;28;20044;-88
2022/09/26 19:40:45;;;;;;;5.27;2.43;;;11.10;99.90;;;;;;5059752;28;20037;-81
2022/09/26 19:43:11;;;;;;;5.03;2.10;;;11.10;99.90;;;;;;5029474;28;20113;-85
2022/09/26 19:45:37;;;;;;;4.88;2.10;;;11.10;99.90;;;;;;5040213;28;20044;-86
2022/09/26 19:48:04;;;;;;;6.10;2.13;;;11.10;99.90;;;;;;5061902;28;20666;-87
2022/09/26 19:50:33;;;;;;;7.88;2.38;;;11.10;99.90;;;;;;5037813;28;20029;-85
2022/09/26 19:52:59;;;;;;;5.82;2.63;;;11.00;99.90;;;;;;5028725;28;20114;-85
2022/09/26 19:55:28;;;;;;;4.28;2.22;;;11.10;99.90;;;;;;5041174;28;20367;-86
2022/09/26 19:58:01;;;;;;;4.07;2.30;;;11.10;99.90;;;;;;5032000;28;20024;-85
2022/09/26 20:00:26;;;;;;;8.60;4.72;;;11.00;99.90;;;;;;5030747;28;20029;-87
2022/09/26 20:02:53;;;;;;;5.13;2.17;;;11.10;99.90;;;;;;5023576;28;20670;-86
2022/09/26 20:05:21;;;;;;;4.45;2.35;;;11.10;99.90;;;;;;5050507;28;20025;-85
2022/09/26 20:07:47;;;;;;;6.93;3.17;;;11.10;99.90;;;;;;5043770;28;20029;-88
2022/09/26 20:10:23;;;;;;;10.90;3.75;;;11.10;99.90;;;;;;5056069;28;20025;-88
2022/09/26 20:12:50;;;;;;;6.90;3.88;;;11.20;99.90;;;;;;5034665;28;20025;-85
2022/09/26 20:15:19;;;;;;;5.30;1.98;;;11.20;99.90;;;;;;5047111;28;20033;-88
2022/09/26 20:17:46;;;;;;;6.63;2.78;;;11.10;99.90;;;;;;5055725;28;20520;-88
2022/09/26 20:20:31;;;;;;;4.22;2.20;;;11.10;99.90;;;;;;5037401;28;20032;-85
2022/09/26 20:22:57;;;;;;;4.53;2.13;;;11.10;99.90;;;;;;5037019;28;20021;-85
2022/09/26 20:25:29;;;;;;;3.63;2.08;;;11.50;99.90;;;;;;5030761;28;20063;-87
2022/09/26 20:27:56;;;;;;;4.53;2.25;;;11.00;99.90;;;;;;5032411;28;20024;-84
2022/09/26 20:33:12;;;;;;;3.80;2.20;;;10.90;99.90;;;;;;5056825;28;20121;-85
2022/09/26 20:35:43;;;;;;;3.90;2.40;;;10.90;99.90;;;;;;5030670;28;20034;-87
2022/09/26 20:38:35;;;;;;;3.22;2.13;;;9.10;99.90;;;;;;5039421;28;20025;-86
2022/09/26 20:41:20;;;;;;;3.70;2.03;;;10.90;99.90;;;;;;5031910;28;20048;-84
2022/09/26 20:43:50;;;;;;;4.65;2.50;;;10.80;99.90;;;;;;5024827;28;20040;-83
2022/09/26 20:46:19;;;;;;;3.75;2.08;;;10.80;99.90;;;;;;5027770;28;20025;-84
2022/09/26 20:48:46;;;;;;;3.50;2.30;;;10.80;99.90;;;;;;5035025;28;20056;-86
2022/09/26 20:51:18;;;;;;;6.28;3.15;;;10.80;99.90;;;;;;5030267;28;20037;-85
2022/09/26 20:53:44;;;;;;;4.47;2.50;;;10.90;99.90;;;;;;5044168;28;20029;-84
2022/09/26 20:56:15;;;;;;;4.05;2.03;;;10.80;99.90;;;;;;5035335;28;20024;-83
2022/09/26 20:58:42;;;;;;;3.00;1.98;;;11.10;99.90;;;;;;5054061;28;20036;-85
2022/09/26 21:01:15;;;;;;;2.75;2.08;;;11.30;99.90;;;;;;5036116;28;20280;-83
2022/09/26 21:03:47;;;;;;;4.07;2.20;;;10.90;99.90;;;;;;5035381;28;20074;-84
2022/09/26 21:06:19;;;;;;;3.42;2.20;;;10.90;99.90;;;;;;5051368;28;20030;-82
2022/09/26 21:08:46;;;;;;;3.47;2.30;;;10.90;99.90;;;;;;5050798;28;20029;-85
2022/09/26 21:11:19;;;;;;;3.80;2.20;;;10.90;99.90;;;;;;5024464;28;20624;-83
2022/09/26 21:13:44;;;;;;;4.50;2.20;;;10.90;99.90;;;;;;5038114;28;20033;-83
2022/09/26 21:16:15;;;;;;;3.33;2.28;;;10.90;99.90;;;;;;5035437;28;20528;-86
2022/09/26 21:18:44;;;;;;;3.45;1.90;;;10.90;99.90;;;;;;5039569;28;20033;-85
2022/09/26 21:21:27;;;;;;;3.95;2.13;;;10.90;99.90;;;;;;5038169;28;20037;-84
2022/09/26 21:23:53;;;;;;;4.35;1.98;;;10.80;99.90;;;;;;5035678;28;20029;-85
2022/09/26 21:26:22;;;;;;;4.32;2.50;;;10.80;99.90;;;;;;5022700;28;20037;-85
2022/09/26 21:28:49;;;;;;;2.33;1.80;;;10.80;99.90;;;;;;5055188;28;20114;-85
2022/09/26 21:31:31;;;;;;;3.10;1.88;;;10.80;99.90;;;;;;5061803;28;20021;-86
2022/09/26 21:33:59;;;;;;;2.95;1.73;;;10.90;99.90;;;;;;5055555;28;20104;-88
2022/09/26 21:36:32;;;;;;;6.65;3.33;;;10.90;99.90;;;;;;5042484;28;20486;-86
2022/09/26 21:38:58;;;;;;;2.45;1.40;;;10.90;99.90;;;;;;5043217;28;20028;-86
2022/09/26 21:41:24;;;;;;;3.55;1.85;;;10.80;99.90;;;;;;5040404;28;20038;-85
2022/09/26 21:44:01;;;;;;;4.35;2.15;;;10.90;99.90;;;;;;5055898;28;20037;-85
2022/09/26 21:46:27;;;;;;;4.65;1.90;;;10.90;99.90;;;;;;5045679;28;20088;-88
2022/09/26 21:48:53;;;;;;;2.75;1.63;;;10.90;99.90;;;;;;5036483;28;20375;-89
2022/09/26 21:51:21;;;;;;;5.95;3.17;;;11.30;99.90;;;;;;5067409;28;20025;-85
2022/09/26 21:53:55;;;;;;;2.90;1.80;;;11.00;99.90;;;;;;5051904;28;20025;-89
2022/09/26 21:56:27;;;;;;;3.15;2.00;;;11.00;99.90;;;;;;5034480;28;20032;-87
2022/09/26 21:58:53;;;;;;;3.03;1.65;;;11.00;99.90;;;;;;5065035;28;20036;-87
2022/09/26 22:01:19;;;;;;;3.15;1.73;;;9.30;99.90;;;;;;5049277;28;20021;-87
2022/09/26 22:03:45;;;;;;;4.60;2.13;;;;;;;;;;5046545;28;20110;-88
2022/09/26 22:06:11;;;;;;;2.92;1.80;;;11.00;99.90;;;;;;5042631;28;20029;-88
2022/09/26 22:08:38;;;;;;;3.15;1.70;;;11.00;99.90;;;;;;5062124;28;20088;-89
2022/09/26 22:11:07;;;;;;;5.68;1.92;;;11.00;99.90;;;;;;5050627;28;20072;-86
2022/09/26 22:13:34;;;;;;;2.58;1.40;;;11.00;99.90;;;;;;5055054;28;20029;-89
2022/09/26 22:16:08;;;;;;;4.15;1.70;;;9.90;99.90;;;;;;5061359;28;20097;-86
2022/09/26 22:18:37;;;;;;;3.38;1.80;;;11.00;99.90;;;;;;5044391;28;20021;-87
2022/09/26 22:21:04;;;;;;;1.95;1.50;;;11.00;99.90;;;;;;5040836;28;20021;-88
2022/09/26 22:23:34;;;;;;;3.78;1.90;;;11.10;99.90;;;;;;5038494;28;20025;-88
2022/09/26 22:26:00;;;;;;;4.30;1.83;;;;;;;;;;5050017;28;20116;-88
2022/09/26 22:28:27;;;;;;;3.75;1.80;;;11.10;99.90;;;;;;5055195;28;20274;-90
2022/09/26 22:30:53;;;;;;;3.55;2.25;;;11.00;99.90;;;;;;5043729;28;20057;-89
2022/09/26 22:33:19;;;;;;;2.97;1.70;;;11.00;99.90;;;;;;5043761;28;20108;-89
2022/09/26 22:35:46;;;;;;;2.97;1.95;;;11.00;99.90;;;;;;5043949;28;20147;-90
2022/09/26 22:38:12;;;;;;;3.95;1.65;;;11.00;99.90;;;;;;5043529;28;20021;-92
2022/09/26 22:40:38;;;;;;;2.65;1.70;;;11.00;99.90;;;;;;5061068;28;20035;-88
2022/09/26 22:43:03;;;;;;;2.33;1.52;;;11.00;99.90;;;;;;5058155;28;20100;-87
2022/09/26 22:45:29;;;;;;;2.85;1.60;;;11.00;99.90;;;;;;5050792;28;20043;-88
2022/09/26 22:47:55;;;;;;;2.90;1.60;;;11.10;99.90;;;;;;5055376;28;20029;-88
2022/09/26 22:50:21;;;;;;;4.43;2.00;;;11.00;99.90;;;;;;5048753;28;20029;-89
2022/09/26 22:52:47;;;;;;;2.55;1.52;;;11.00;99.90;;;;;;5044935;28;20048;-89
2022/09/26 22:55:13;;;;;;;2.63;1.40;;;11.00;99.90;;;;;;5047066;28;20017;-87
2022/09/26 22:57:39;;;;;;;4.13;1.52;;;;;;;;;;5063233;28;20029;-90
2022/09/26 23:00:07;;;;;;;2.33;1.50;;;11.10;99.90;;;;;;5055433;28;20025;-88
2022/09/26 23:02:33;;;;;;;2.47;1.27;;;11.10;99.90;;;;;;5031559;28;20018;-90
2022/09/26 23:04:59;;;;;;;2.47;1.27;;;11.50;99.90;;;;;;5044283;28;20037;-89
2022/09/26 23:36:26;;;;;;;6.28;1.42;;;11.20;99.90;;;;;;5039891;28;20052;-86
2022/09/26 23:39:55;;;;;;;;;;;;;;;;;;;;;
2022/09/26 23:43:06;;;;;;;4.95;1.80;;;11.20;99.90;;;;;;4934005;29;20091;-83
2022/09/26 23:46:28;;;;;;;6.15;1.95;;;11.20;99.90;;;;;;5006041;28;20046;-86
2022/09/26 23:53:01;;;;;;;4.43;1.50;;;11.20;99.90;;;;;;4994339;28;20111;-83
2022/09/26 23:56:16;;;;;;;;;;;;;;;;;;;;;
